Terminal Aerodrome Forecast
Issued by NWS

Home | Current Version | Previous Version | Text Only | Print | Product List | Glossary On
Versions: 1 2 3 4 5 6 7 8 9 10 11 12 13 14 15 16 17 18 19 20 21 22 23 24 25
476
FTUS43 KPAH 211139
TAFCGI
TAF
KCGI 211139Z 2112/2212 03003KT 6SM -SHRA SCT040 BKN100
      TEMPO 2112/2114 4SM SHRA SCT025 BKN040
     FM211500 08006KT P6SM VCSH SCT025 OVC040
     FM212100 06004KT P6SM OVC015
     FM220400 00000KT 4SM BR OVC010
      TEMPO 2209/2212 2SM BR OVC008=

USA.gov is the U.S. government's official web portal to all federal, state and local government web resources and services.